createdAt,value
2022-09-07T00:01:44.180Z,101218.03
2022-09-07T00:04:13.522Z,101217.97
2022-09-07T00:06:45.174Z,101223.78
2022-09-07T00:09:17.513Z,101215.63
2022-09-07T00:11:47.301Z,101220.91
2022-09-07T00:14:17.829Z,101187.66
2022-09-07T00:16:47.139Z,101192.69
2022-09-07T00:19:18.640Z,101174.50
2022-09-07T00:21:50.292Z,101197.19
2022-09-07T00:24:19.696Z,101197.25
2022-09-07T00:26:48.899Z,101186.94
2022-09-07T00:29:19.703Z,101178.81
2022-09-07T00:31:49.158Z,101165.00
2022-09-07T00:34:18.864Z,101156.13
2022-09-07T00:36:48.535Z,101127.22
2022-09-07T00:39:19.891Z,101110.72
2022-09-07T00:41:54.836Z,101097.41
2022-09-07T00:45:01.106Z,101086.25
2022-09-07T00:47:37.944Z,101079.19
2022-09-07T00:50:15.153Z,101078.69
2022-09-07T00:52:48.578Z,100982.28
2022-09-07T00:55:19.645Z,101114.50
2022-09-07T00:57:53.408Z,101087.44
2022-09-07T01:00:24.425Z,101079.03
2022-09-07T01:02:56.697Z,101091.25
2022-09-07T01:05:30.052Z,101092.34
2022-09-07T01:07:59.816Z,101057.28
2022-09-07T01:10:32.644Z,101092.91
2022-09-07T01:13:02.429Z,101088.09
2022-09-07T01:15:44.876Z,101092.25
2022-09-07T01:18:22.870Z,101094.03
2022-09-07T01:21:27.050Z,101097.25
2022-09-07T01:24:29.707Z,101096.94
2022-09-07T01:27:33.655Z,101112.22
2022-09-07T01:30:08.238Z,101103.84
2022-09-07T01:32:51.319Z,101100.72
2022-09-07T01:35:25.810Z,101108.19
2022-09-07T01:38:06.375Z,101112.09
2022-09-07T01:40:45.198Z,101104.31
2022-09-07T01:43:18.585Z,101097.16
2022-09-07T01:45:49.772Z,101118.81
2022-09-07T01:48:20.297Z,101122.97
2022-09-07T01:50:54.497Z,101126.63
2022-09-07T01:53:28.916Z,101110.53
2022-09-07T01:56:03.111Z,101124.59
2022-09-07T01:58:39.922Z,101117.28
2022-09-07T02:01:13.916Z,101124.34
2022-09-07T02:03:52.967Z,101118.63
2022-09-07T02:06:39.716Z,101128.53
2022-09-07T02:09:14.662Z,101130.19
2022-09-07T02:11:50.323Z,101122.59
2022-09-07T02:14:24.216Z,101115.38
2022-09-07T02:16:59.932Z,101122.75
2022-09-07T02:19:42.139Z,101121.50
2022-09-07T02:22:17.524Z,101090.22
2022-09-07T02:24:53.893Z,101117.34
2022-09-07T02:27:28.185Z,101123.75
2022-09-07T02:29:57.941Z,101123.72
2022-09-07T02:32:28.492Z,101122.41
2022-09-07T02:34:58.128Z,101120.66
2022-09-07T02:37:30.241Z,101126.06
2022-09-07T02:40:01.993Z,101122.28
2022-09-07T02:42:33.904Z,101100.72
2022-09-07T02:45:06.458Z,101116.78
2022-09-07T02:47:50.565Z,101115.47
2022-09-07T02:50:41.332Z,101119.09
2022-09-07T02:53:26.348Z,101121.81
2022-09-07T02:56:06.353Z,101110.59
2022-09-07T02:58:47.418Z,100892.50
2022-09-07T03:01:32.146Z,101111.84
2022-09-07T03:04:11.672Z,101114.69
2022-09-07T03:06:44.490Z,101114.16
2022-09-07T03:09:18.810Z,101113.97
2022-09-07T03:11:49.454Z,101101.50
2022-09-07T03:14:21.352Z,101076.44
2022-09-07T03:16:53.660Z,101115.25
2022-09-07T03:19:24.824Z,101121.81
2022-09-07T03:21:55.124Z,101112.94
2022-09-07T03:24:25.594Z,101113.59
2022-09-07T03:26:55.221Z,101120.88
2022-09-07T03:29:24.768Z,101119.66
2022-09-07T03:31:54.749Z,101085.66
2022-09-07T03:34:26.615Z,101092.53
2022-09-07T03:36:57.022Z,101096.53
2022-09-07T03:39:27.060Z,101090.31
2022-09-07T03:41:57.034Z,101088.66
2022-09-07T03:44:27.439Z,101088.78
2022-09-07T03:46:57.303Z,101091.75
2022-09-07T03:49:32.347Z,101084.41
2022-09-07T03:52:02.393Z,101089.38
2022-09-07T03:54:32.273Z,101080.28
2022-09-07T03:57:02.129Z,101073.91
2022-09-07T03:59:32.035Z,101049.34
2022-09-07T04:02:02.016Z,101066.28
2022-09-07T04:04:33.318Z,101062.84
2022-09-07T04:07:03.848Z,101077.44
2022-09-07T04:09:34.076Z,101067.50
2022-09-07T04:12:05.010Z,101074.78
2022-09-07T04:14:34.640Z,100958.66
2022-09-07T04:17:04.613Z,101099.16
2022-09-07T04:19:35.679Z,101091.25
2022-09-07T04:22:04.669Z,101096.16
2022-09-07T04:24:35.908Z,101089.44
2022-09-07T04:27:05.217Z,101080.91
2022-09-07T04:29:34.198Z,101077.22
2022-09-07T04:32:03.609Z,101086.13
2022-09-07T04:34:32.517Z,101092.81
2022-09-07T04:37:02.627Z,101087.69
2022-09-07T04:39:31.449Z,101069.72
2022-09-07T04:42:00.154Z,101092.50
2022-09-07T04:44:28.898Z,101088.63
2022-09-07T04:46:57.653Z,101084.31
2022-09-07T04:49:28.914Z,101080.50
2022-09-07T04:51:57.675Z,101085.91
2022-09-07T04:54:27.942Z,101051.63
2022-09-07T04:57:00.043Z,101084.66
2022-09-07T04:59:38.293Z,101084.56
2022-09-07T05:02:07.841Z,101086.56
2022-09-07T05:04:37.052Z,101079.84
2022-09-07T05:07:06.572Z,101078.66
2022-09-07T05:09:38.957Z,101079.28
2022-09-07T05:12:08.315Z,101055.13
2022-09-07T05:14:37.483Z,101084.44
2022-09-07T05:17:07.845Z,101082.94
2022-09-07T05:19:36.579Z,101026.50
2022-09-07T05:22:06.938Z,101065.19
2022-09-07T05:24:37.085Z,101076.03
2022-09-07T05:27:07.851Z,101081.81
2022-09-07T05:32:26.326Z,101072.88
2022-09-07T05:34:56.079Z,101080.44
2022-09-07T05:37:25.592Z,101082.13
2022-09-07T05:39:57.088Z,101075.38
2022-09-07T05:42:27.952Z,101077.81
2022-09-07T05:44:57.159Z,101086.44
2022-09-07T05:47:27.176Z,101087.69
2022-09-07T05:49:57.134Z,101065.41
2022-09-07T05:52:26.779Z,101099.47
2022-09-07T05:55:07.417Z,101105.47
2022-09-07T05:57:47.335Z,101099.91
2022-09-07T06:00:17.006Z,101103.91
2022-09-07T06:02:46.590Z,101104.00
2022-09-07T06:05:16.214Z,101100.97
2022-09-07T06:07:49.011Z,101069.84
2022-09-07T06:13:11.768Z,101102.94
2022-09-07T06:15:40.783Z,101107.38
2022-09-07T06:18:10.360Z,101104.00
2022-09-07T06:20:39.321Z,101103.28
2022-09-07T06:23:09.073Z,101100.75
2022-09-07T06:25:38.020Z,101109.13
2022-09-07T06:28:07.281Z,101109.22
2022-09-07T06:30:37.797Z,101120.34
2022-09-07T06:33:06.903Z,101120.72
2022-09-07T06:35:36.228Z,101090.44
2022-09-07T06:38:05.515Z,101103.69
2022-09-07T06:40:35.597Z,101112.88
2022-09-07T06:43:04.772Z,101119.31
2022-09-07T06:45:33.866Z,101138.03
2022-09-07T06:48:06.843Z,101120.94
2022-09-07T06:50:37.224Z,101130.13
2022-09-07T06:55:56.215Z,101123.47
2022-09-07T06:58:25.964Z,101127.59
2022-09-07T07:00:57.585Z,101140.44
2022-09-07T07:03:29.611Z,101140.81
2022-09-07T07:05:59.353Z,101130.97
2022-09-07T07:08:28.512Z,101128.38
2022-09-07T07:11:02.299Z,101043.16
2022-09-07T07:13:31.622Z,101130.03
2022-09-07T07:16:06.048Z,101138.88
2022-09-07T07:18:37.215Z,101127.13
2022-09-07T07:21:08.398Z,101144.63
2022-09-07T07:23:37.724Z,101150.84
2022-09-07T07:26:13.744Z,101150.00
2022-09-07T07:29:00.861Z,101156.16
2022-09-07T07:31:33.305Z,101160.03
2022-09-07T07:34:06.234Z,101157.59
2022-09-07T07:36:37.007Z,101157.38
2022-09-07T07:39:06.746Z,101152.78
2022-09-07T07:44:26.326Z,101150.44
2022-09-07T07:46:56.088Z,100998.41
2022-09-07T07:49:26.877Z,101151.97
2022-09-07T07:54:46.284Z,101120.63
2022-09-07T07:57:19.282Z,101156.66
2022-09-07T07:59:48.876Z,101151.38
2022-09-07T08:02:18.540Z,101153.44
2022-09-07T08:04:49.442Z,101151.31
2022-09-07T08:07:19.344Z,101172.47
2022-09-07T08:09:49.708Z,101162.94
2022-09-07T08:12:21.749Z,101152.94
2022-09-07T08:14:52.006Z,101154.13
2022-09-07T08:17:21.350Z,101154.47
2022-09-07T08:19:55.975Z,101152.50
2022-09-07T08:22:25.368Z,101151.56
2022-09-07T08:24:54.661Z,101142.38
2022-09-07T08:27:23.951Z,101157.34
2022-09-07T08:29:53.552Z,101146.19
2022-09-07T08:32:23.306Z,101145.84
2022-09-07T08:34:53.358Z,101137.19
2022-09-07T08:37:24.226Z,101150.28
2022-09-07T08:39:53.855Z,101127.13
2022-09-07T08:42:46.817Z,101139.66
2022-09-07T08:45:21.713Z,101138.25
2022-09-07T08:47:52.343Z,101140.47
2022-09-07T08:50:25.426Z,101146.31
2022-09-07T08:53:00.180Z,101141.06
2022-09-07T08:55:32.975Z,101154.88
2022-09-07T08:58:14.543Z,101148.78
2022-09-07T09:06:48.170Z,101138.47
2022-09-07T09:09:25.185Z,101147.03
2022-09-07T09:12:06.299Z,101137.91
2022-09-07T09:14:43.584Z,101136.19
2022-09-07T09:17:21.308Z,101129.06
2022-09-07T09:20:00.510Z,101131.41
2022-09-07T09:22:30.077Z,101137.00
2022-09-07T09:25:05.897Z,101142.22
2022-09-07T09:27:38.010Z,101111.09
2022-09-07T09:30:14.667Z,101143.06
2022-09-07T09:32:46.280Z,101143.91
2022-09-07T09:35:20.386Z,101152.69
2022-09-07T09:37:50.872Z,101141.00
2022-09-07T09:40:26.285Z,101148.81
2022-09-07T09:43:06.885Z,101141.91
2022-09-07T09:48:34.419Z,101133.22
2022-09-07T09:54:02.819Z,101124.06
2022-09-07T09:56:41.279Z,101119.53
2022-09-07T10:05:34.482Z,101101.28
2022-09-07T10:08:05.811Z,101124.22
2022-09-07T10:10:35.631Z,101004.91
2022-09-07T10:13:08.859Z,101123.91
2022-09-07T10:15:40.997Z,101122.91
2022-09-07T10:18:22.353Z,101126.88
2022-09-07T10:20:54.260Z,101045.69
2022-09-07T10:23:25.910Z,101125.94
2022-09-07T10:25:55.325Z,101112.47
2022-09-07T10:29:06.317Z,101100.13
2022-09-07T10:31:23.053Z,101092.78
2022-09-07T10:37:00.883Z,101122.53
2022-09-07T10:39:37.180Z,101110.69
2022-09-07T10:42:18.245Z,101102.94
2022-09-07T10:44:59.322Z,101112.63
2022-09-07T10:47:42.797Z,101107.13
2022-09-07T10:50:23.289Z,101124.66
2022-09-07T10:53:13.586Z,101116.31
2022-09-07T10:56:02.952Z,101114.97
2022-09-07T11:01:41.928Z,101103.44
2022-09-07T11:04:36.093Z,101101.91
2022-09-07T11:07:15.595Z,101106.41
2022-09-07T11:09:57.070Z,101106.94
2022-09-07T11:12:30.007Z,101104.56
2022-09-07T11:15:07.638Z,101110.75
2022-09-07T11:17:49.364Z,101099.00
2022-09-07T11:20:29.493Z,101111.22
2022-09-07T11:23:09.357Z,101110.91
2022-09-07T11:25:46.703Z,101121.66
2022-09-07T11:28:22.383Z,101109.97
2022-09-07T11:31:00.220Z,101099.25
2022-09-07T11:33:36.470Z,101106.28
2022-09-07T11:36:12.817Z,101106.47
2022-09-07T11:38:46.548Z,101085.09
2022-09-07T11:41:27.523Z,101091.75
2022-09-07T11:44:07.304Z,101101.13
2022-09-07T11:46:42.756Z,101078.13
2022-09-07T11:49:20.357Z,101098.59
2022-09-07T11:51:54.549Z,101097.75
2022-09-07T11:54:34.738Z,101104.97
2022-09-07T11:57:16.482Z,101096.59
2022-09-07T11:59:58.883Z,101092.75
2022-09-07T12:03:04.930Z,101095.13
2022-09-07T12:05:56.988Z,101099.94
2022-09-07T12:08:41.523Z,101105.63
2022-09-07T12:11:24.568Z,101124.97
2022-09-07T12:14:07.791Z,101097.09
2022-09-07T12:16:56.438Z,101092.78
2022-09-07T12:19:26.958Z,101088.44
2022-09-07T12:21:59.664Z,101086.78
2022-09-07T12:24:46.903Z,101090.09
2022-09-07T12:27:40.837Z,101084.25
2022-09-07T12:30:50.182Z,101079.94
2022-09-07T12:33:26.882Z,101092.31
2022-09-07T12:35:58.985Z,101088.59
2022-09-07T12:39:07.460Z,101082.13
2022-09-07T12:41:47.891Z,101082.78
2022-09-07T12:44:20.619Z,101087.44
2022-09-07T12:46:56.057Z,101085.78
2022-09-07T12:49:48.930Z,101079.06
2022-09-07T12:52:39.047Z,101074.09
2022-09-07T12:55:28.530Z,101069.91
2022-09-07T12:58:14.135Z,101069.47
2022-09-07T13:00:58.004Z,101079.75
2022-09-07T13:03:55.046Z,101064.91
2022-09-07T13:09:34.724Z,101070.03
2022-09-07T13:15:34.529Z,101060.09
2022-09-07T13:18:05.035Z,101052.63
2022-09-07T13:20:39.644Z,101054.97
2022-09-07T13:23:23.791Z,101058.22
2022-09-07T13:25:58.927Z,101054.94
2022-09-07T13:28:40.322Z,101047.09
2022-09-07T13:31:33.454Z,101045.25
2022-09-07T13:34:02.514Z,101048.28
2022-09-07T13:36:39.020Z,101001.88
2022-09-07T13:39:14.005Z,101046.75
2022-09-07T13:41:50.164Z,101034.09
2022-09-07T13:44:26.768Z,101038.56
2022-09-07T13:47:05.695Z,101013.06
2022-09-07T13:49:46.747Z,101038.72
2022-09-07T13:52:19.596Z,101031.75
2022-09-07T13:55:09.505Z,101038.91
2022-09-07T13:57:50.091Z,101035.16
2022-09-07T14:00:20.927Z,101013.06
2022-09-07T14:02:56.583Z,101023.56
2022-09-07T14:05:26.578Z,101032.22
2022-09-07T14:07:55.593Z,101026.09
2022-09-07T14:10:26.747Z,101018.75
2022-09-07T14:13:07.650Z,101026.59
2022-09-07T14:15:42.231Z,100916.66
2022-09-07T14:18:14.576Z,101017.78
2022-09-07T14:20:46.547Z,101021.41
2022-09-07T14:23:23.709Z,100889.88
2022-09-07T14:26:16.665Z,101017.47
2022-09-07T14:28:48.683Z,101021.69
2022-09-07T14:31:24.936Z,101022.22
2022-09-07T14:33:58.490Z,101026.69
2022-09-07T14:36:48.272Z,101029.50
2022-09-07T14:39:23.354Z,101023.38
2022-09-07T14:41:53.177Z,101015.25
2022-09-07T14:44:30.537Z,101012.75
2022-09-07T14:47:05.810Z,100987.34
2022-09-07T14:49:35.487Z,101007.88
2022-09-07T14:52:05.326Z,100974.19
2022-09-07T14:54:35.414Z,101008.25
2022-09-07T14:57:07.780Z,101004.94
2022-09-07T14:59:43.145Z,101013.38
2022-09-07T15:02:40.858Z,101007.94
2022-09-07T15:05:25.788Z,101004.00
2022-09-07T15:07:59.556Z,101000.66
2022-09-07T15:10:36.959Z,100992.44
2022-09-07T15:13:23.011Z,100991.06
2022-09-07T15:16:01.418Z,101003.97
2022-09-07T15:18:56.017Z,100998.66
2022-09-07T15:21:27.642Z,100992.03
2022-09-07T15:23:58.842Z,100989.75
2022-09-07T15:29:24.209Z,100991.13
2022-09-07T15:32:03.320Z,100991.09
2022-09-07T15:34:35.207Z,100976.25
2022-09-07T15:38:01.001Z,100989.91
2022-09-07T15:39:56.386Z,100962.38
2022-09-07T15:45:16.089Z,100894.59
2022-09-07T15:47:52.705Z,100966.09
2022-09-07T15:50:23.840Z,100875.06
2022-09-07T15:52:55.298Z,100989.03
2022-09-07T15:55:25.444Z,100981.44
2022-09-07T15:58:08.774Z,100981.78
2022-09-07T16:00:40.996Z,100981.81
2022-09-07T16:03:11.054Z,100982.06
2022-09-07T16:05:44.333Z,100976.47
2022-09-07T16:08:32.662Z,100961.78
2022-09-07T16:11:18.735Z,100968.00
2022-09-07T16:13:53.145Z,100963.16
2022-09-07T16:16:22.935Z,100965.28
2022-09-07T16:18:52.374Z,100968.47
2022-09-07T16:21:26.427Z,100964.13
2022-09-07T16:23:55.667Z,100968.69
2022-09-07T16:26:26.257Z,100965.81
2022-09-07T16:28:56.237Z,100959.59
2022-09-07T16:31:27.324Z,100960.44
2022-09-07T16:33:56.567Z,100959.22
2022-09-07T16:36:27.037Z,100956.38
2022-09-07T16:38:57.917Z,100952.13
2022-09-07T16:41:29.227Z,100954.38
2022-09-07T16:43:59.856Z,100950.63
2022-09-07T16:46:31.277Z,100959.03
2022-09-07T16:49:00.532Z,100961.09
2022-09-07T16:51:30.938Z,100964.75
2022-09-07T16:54:01.202Z,100960.78
2022-09-07T16:56:35.639Z,100956.00
2022-09-07T16:59:09.970Z,100963.00
2022-09-07T17:01:39.447Z,100956.44
2022-09-07T17:04:11.193Z,100958.81
2022-09-07T17:06:42.114Z,100956.31
2022-09-07T17:09:12.417Z,100958.00
2022-09-07T17:11:42.125Z,100955.03
2022-09-07T17:14:11.346Z,100952.81
2022-09-07T17:16:42.124Z,100925.13
2022-09-07T17:22:04.513Z,100950.16
2022-09-07T17:24:34.020Z,100956.59
2022-09-07T17:27:03.656Z,100952.75
2022-09-07T17:29:37.003Z,100941.72
2022-09-07T17:32:24.580Z,100945.75
2022-09-07T17:34:55.491Z,100938.38
2022-09-07T17:37:28.321Z,100937.56
2022-09-07T17:39:58.142Z,100916.69
2022-09-07T17:43:38.785Z,100936.78
2022-09-07T17:45:18.220Z,100940.53
2022-09-07T17:47:49.515Z,100938.31
2022-09-07T17:50:19.234Z,100943.75
2022-09-07T17:52:53.306Z,100951.91
2022-09-07T17:55:22.446Z,100924.75
2022-09-07T17:57:51.469Z,100944.38
2022-09-07T18:00:23.206Z,100945.63
2022-09-07T18:02:52.467Z,100942.13
2022-09-07T18:05:21.560Z,100939.91
2022-09-07T18:07:52.222Z,100941.78
2022-09-07T18:10:21.664Z,100930.78
2022-09-07T18:12:53.143Z,100938.47
2022-09-07T18:15:22.366Z,100849.06
2022-09-07T18:17:51.619Z,100818.78
2022-09-07T18:20:22.844Z,100940.50
2022-09-07T18:22:53.441Z,100935.91
2022-09-07T18:25:22.654Z,100930.94
2022-09-07T18:30:42.883Z,100935.81
2022-09-07T18:33:11.952Z,100931.09
2022-09-07T18:35:45.503Z,100927.63
2022-09-07T18:38:16.061Z,100936.28
2022-09-07T18:40:47.253Z,100927.09
2022-09-07T18:43:16.520Z,100932.38
2022-09-07T18:45:48.603Z,100900.75
2022-09-07T18:48:18.019Z,100927.25
2022-09-07T18:50:54.457Z,100932.41
2022-09-07T18:53:25.211Z,100929.72
2022-09-07T18:55:54.597Z,100935.16
2022-09-07T18:58:24.396Z,100935.44
2022-09-07T19:00:58.179Z,100927.63
2022-09-07T19:03:27.295Z,100930.25
2022-09-07T19:05:59.997Z,100926.50
2022-09-07T19:08:33.414Z,100928.00
2022-09-07T19:11:07.034Z,100891.47
2022-09-07T19:13:39.626Z,100924.94
2022-09-07T19:16:12.598Z,100929.53
2022-09-07T19:18:45.885Z,100939.69
2022-09-07T19:21:19.680Z,100854.84
2022-09-07T19:23:56.450Z,100929.91
2022-09-07T19:26:27.291Z,100943.59
2022-09-07T19:28:58.466Z,100943.00
2022-09-07T19:31:28.977Z,100940.75
2022-09-07T19:33:58.409Z,100865.41
2022-09-07T19:36:28.472Z,100935.31
2022-09-07T19:38:58.914Z,100936.84
2022-09-07T19:41:30.426Z,100942.38
2022-09-07T19:43:59.761Z,100942.63
2022-09-07T19:46:29.063Z,100941.81
2022-09-07T19:48:59.929Z,100918.22
2022-09-07T19:51:36.622Z,100951.78
2022-09-07T19:54:08.305Z,100930.63
2022-09-07T19:56:39.040Z,100909.13
2022-09-07T19:59:08.998Z,100915.44
2022-09-07T20:01:40.061Z,100919.47
2022-09-07T20:04:17.274Z,100918.66
2022-09-07T20:06:50.221Z,100912.09
2022-09-07T20:09:21.067Z,100915.88
2022-09-07T20:11:50.904Z,100909.72
2022-09-07T20:14:20.581Z,100903.56
2022-09-07T20:16:50.024Z,100909.69
2022-09-07T20:19:19.283Z,100934.75
2022-09-07T20:21:49.256Z,100916.00
2022-09-07T20:24:22.594Z,100910.00
2022-09-07T20:26:52.064Z,100885.88
2022-09-07T20:29:28.582Z,100904.16
2022-09-07T20:31:59.895Z,100911.53
2022-09-07T20:34:29.871Z,100896.88
2022-09-07T20:36:59.099Z,100891.84
2022-09-07T20:39:30.156Z,100884.91
2022-09-07T20:42:00.086Z,100885.88
2022-09-07T20:44:29.524Z,100864.91
2022-09-07T20:46:59.756Z,100888.09
2022-09-07T20:49:32.086Z,100856.81
2022-09-07T20:52:01.406Z,100887.59
2022-09-07T20:54:32.735Z,100880.50
2022-09-07T20:57:04.051Z,100882.44
2022-09-07T20:59:34.401Z,100880.56
2022-09-07T21:02:03.781Z,100868.84
2022-09-07T21:04:33.011Z,100892.31
2022-09-07T21:07:02.321Z,100891.00
2022-09-07T21:09:34.324Z,100895.63
2022-09-07T21:12:06.138Z,100874.81
2022-09-07T21:14:35.747Z,100849.75
2022-09-07T21:17:04.809Z,100897.38
2022-09-07T21:19:36.922Z,100898.25
2022-09-07T21:22:05.892Z,100875.56
2022-09-07T21:24:36.018Z,100887.44
2022-09-07T21:27:05.526Z,100888.78
2022-09-07T21:29:34.628Z,100893.09
2022-09-07T21:32:03.910Z,100873.72
2022-09-07T21:34:32.745Z,100886.72
2022-09-07T21:37:01.573Z,100895.22
2022-09-07T21:39:30.343Z,100902.16
2022-09-07T21:42:00.709Z,100899.13
2022-09-07T21:44:29.646Z,100903.84
2022-09-07T21:46:58.686Z,100903.84
2022-09-07T21:49:27.470Z,100898.75
2022-09-07T21:51:56.466Z,100899.09
2022-09-07T21:54:25.209Z,100893.94
2022-09-07T21:56:54.555Z,100891.06
2022-09-07T21:59:24.564Z,100896.25
2022-09-07T22:01:53.415Z,100897.94
2022-09-07T22:04:22.554Z,100895.63
2022-09-07T22:06:51.662Z,100894.22
2022-09-07T22:09:20.451Z,100891.47
2022-09-07T22:11:49.820Z,100893.44
2022-09-07T22:14:21.160Z,100886.31
2022-09-07T22:16:51.503Z,100880.44
2022-09-07T22:19:20.297Z,100869.31
2022-09-07T22:21:49.235Z,100863.53
2022-09-07T22:24:18.264Z,100863.53
2022-09-07T22:26:47.604Z,100830.19
2022-09-07T22:29:16.419Z,100866.47
2022-09-07T22:31:45.824Z,100857.34
2022-09-07T22:34:16.175Z,100855.16
2022-09-07T22:36:45.973Z,100847.38
2022-09-07T22:39:17.419Z,100733.13
2022-09-07T22:41:48.325Z,100860.94
2022-09-07T22:44:19.109Z,100858.06
2022-09-07T22:46:48.862Z,100851.25
2022-09-07T22:49:19.151Z,100851.13
2022-09-07T22:51:48.513Z,100846.09
2022-09-07T22:54:17.442Z,100849.94
2022-09-07T22:56:46.968Z,100839.13
2022-09-07T22:59:16.032Z,100841.56
2022-09-07T23:01:47.294Z,100836.63
2022-09-07T23:04:16.561Z,100833.47
2022-09-07T23:06:46.823Z,100833.47
2022-09-07T23:09:18.325Z,100831.63
2022-09-07T23:11:48.599Z,100821.56
2022-09-07T23:14:20.644Z,100817.03
2022-09-07T23:16:49.923Z,100681.97
2022-09-07T23:19:20.725Z,100819.41
2022-09-07T23:21:50.925Z,100811.22
2022-09-07T23:24:20.174Z,100805.94
2022-09-07T23:26:49.318Z,100810.97
2022-09-07T23:29:19.658Z,100802.69
2022-09-07T23:31:48.945Z,100803.53
2022-09-07T23:34:18.039Z,100795.59
2022-09-07T23:36:46.959Z,100780.59
2022-09-07T23:39:17.199Z,100779.50
2022-09-07T23:41:46.127Z,100772.28
2022-09-07T23:44:14.997Z,100773.84
2022-09-07T23:46:47.013Z,100763.41
2022-09-07T23:49:16.120Z,100645.31
2022-09-07T23:51:44.928Z,100750.91
2022-09-07T23:54:13.875Z,100753.53
2022-09-07T23:56:44.045Z,100741.84
2022-09-07T23:59:13.037Z,100742.31
